createdAt,value
2018-09-27T00:02:08.312Z,71.86
2018-09-27T00:04:39.205Z,71.54
2018-09-27T00:07:10.119Z,71.18
2018-09-27T00:09:40.911Z,71.11
2018-09-27T00:12:12.596Z,71.44
2018-09-27T00:14:43.375Z,71.51
2018-09-27T00:17:14.915Z,71.43
2018-09-27T00:19:45.770Z,71.17
2018-09-27T00:22:16.608Z,71.37
2018-09-27T00:24:47.500Z,71.63
2018-09-27T00:27:18.904Z,72.06
2018-09-27T00:29:49.809Z,72.02
2018-09-27T00:32:20.733Z,71.63
2018-09-27T00:34:51.463Z,71.45
2018-09-27T00:37:22.316Z,70.97
2018-09-27T00:39:53.135Z,70.40
2018-09-27T00:42:23.917Z,69.92
2018-09-27T00:44:54.651Z,69.57
2018-09-27T00:47:25.611Z,69.81
2018-09-27T00:49:57.366Z,69.99
2018-09-27T00:52:28.640Z,69.72
2018-09-27T00:54:59.341Z,69.48
2018-09-27T00:57:30.143Z,69.16
2018-09-27T01:00:00.804Z,68.78
2018-09-27T01:02:31.569Z,69.00
2018-09-27T01:05:02.223Z,68.88
2018-09-27T01:07:33.938Z,68.87
2018-09-27T01:10:04.414Z,68.62
2018-09-27T01:12:34.746Z,68.52
2018-09-27T01:15:05.099Z,68.60
2018-09-27T01:17:35.596Z,69.04
2018-09-27T01:20:05.937Z,69.09
2018-09-27T01:22:36.357Z,68.94
2018-09-27T01:25:07.003Z,69.03
2018-09-27T01:27:37.529Z,69.38
2018-09-27T01:30:08.775Z,69.43
2018-09-27T01:32:39.221Z,69.20
2018-09-27T01:35:09.712Z,69.59
2018-09-27T01:37:40.054Z,69.82
2018-09-27T01:40:10.423Z,70.01
2018-09-27T01:42:40.968Z,70.14
2018-09-27T01:45:11.372Z,70.69
2018-09-27T01:47:41.826Z,71.99
2018-09-27T01:50:12.136Z,72.17
2018-09-27T01:52:42.388Z,72.45
2018-09-27T01:55:13.558Z,73.01
2018-09-27T01:57:43.891Z,72.54
2018-09-27T02:00:14.267Z,72.38
2018-09-27T02:02:44.636Z,71.99
2018-09-27T02:05:14.927Z,71.58
2018-09-27T02:07:45.175Z,71.79
2018-09-27T02:10:15.570Z,71.69
2018-09-27T02:12:46.012Z,71.00
2018-09-27T02:15:16.412Z,70.88
2018-09-27T02:17:46.854Z,70.75
2018-09-27T02:20:17.237Z,70.49
2018-09-27T02:22:47.563Z,71.57
2018-09-27T02:25:17.954Z,72.24
2018-09-27T02:27:48.218Z,73.41
2018-09-27T02:30:18.511Z,73.76
2018-09-27T02:32:48.975Z,74.46
2018-09-27T02:35:19.257Z,73.67
2018-09-27T02:37:50.459Z,72.88
2018-09-27T02:40:20.805Z,73.03
2018-09-27T02:42:51.332Z,73.23
2018-09-27T02:45:21.707Z,73.61
2018-09-27T02:47:52.006Z,73.76
2018-09-27T02:50:22.443Z,73.44
2018-09-27T02:52:53.105Z,72.78
2018-09-27T02:55:23.357Z,72.95
2018-09-27T02:57:53.908Z,72.13
2018-09-27T03:00:24.296Z,72.73
2018-09-27T03:02:54.882Z,73.25
2018-09-27T03:05:25.488Z,74.52
2018-09-27T03:07:55.834Z,75.41
2018-09-27T03:10:26.167Z,75.28
2018-09-27T03:12:56.463Z,74.91
2018-09-27T03:15:26.825Z,74.74
2018-09-27T03:17:57.359Z,74.59
2018-09-27T03:20:27.678Z,74.85
2018-09-27T03:22:58.139Z,75.65
2018-09-27T03:25:28.416Z,75.19
2018-09-27T03:27:59.008Z,75.14
2018-09-27T03:30:29.256Z,75.52
2018-09-27T03:32:59.696Z,76.29
2018-09-27T03:35:30.170Z,76.83
2018-09-27T03:38:00.702Z,77.52
2018-09-27T03:40:31.119Z,78.15
2018-09-27T03:43:01.664Z,78.47
2018-09-27T03:45:32.109Z,79.06
2018-09-27T03:48:02.537Z,79.70
2018-09-27T03:50:32.898Z,80.06
2018-09-27T03:53:03.349Z,80.42
2018-09-27T03:55:33.667Z,80.21
2018-09-27T03:58:03.953Z,80.38
2018-09-27T04:00:34.249Z,80.31
2018-09-27T04:03:04.800Z,80.20
2018-09-27T04:05:35.293Z,79.60
2018-09-27T04:08:05.832Z,79.43
2018-09-27T04:10:36.307Z,79.89
2018-09-27T04:13:06.852Z,80.15
2018-09-27T04:15:37.289Z,79.61
2018-09-27T04:18:07.662Z,80.32
2018-09-27T04:20:43.340Z,80.39
2018-09-27T04:23:13.654Z,81.13
2018-09-27T04:25:44.032Z,81.47
2018-09-27T04:28:14.578Z,81.92
2018-09-27T04:30:45.096Z,82.43
2018-09-27T04:33:15.759Z,83.17
2018-09-27T04:35:46.217Z,83.97
2018-09-27T04:38:16.559Z,84.03
2018-09-27T04:40:47.003Z,83.96
2018-09-27T04:43:17.375Z,83.58
2018-09-27T04:45:47.812Z,83.51
2018-09-27T04:48:18.296Z,83.98
2018-09-27T04:50:48.682Z,84.58
2018-09-27T04:53:19.020Z,84.81
2018-09-27T04:55:49.394Z,85.32
2018-09-27T04:58:19.833Z,84.96
2018-09-27T05:00:50.326Z,85.00
2018-09-27T05:03:20.850Z,85.07
2018-09-27T05:05:51.353Z,84.99
2018-09-27T05:08:22.053Z,85.27
2018-09-27T05:10:52.519Z,84.89
2018-09-27T05:13:22.798Z,83.63
2018-09-27T05:15:53.390Z,83.58
2018-09-27T05:18:23.843Z,83.81
2018-09-27T05:20:54.420Z,84.23
2018-09-27T05:23:24.869Z,84.16
2018-09-27T05:25:55.402Z,84.61
2018-09-27T05:28:25.747Z,84.86
2018-09-27T05:30:56.346Z,84.45
2018-09-27T05:33:26.810Z,85.08
2018-09-27T05:35:57.323Z,83.30
2018-09-27T05:38:28.426Z,78.58
2018-09-27T05:40:59.035Z,71.60
2018-09-27T05:43:29.470Z,68.78
2018-09-27T05:46:00.031Z,64.89
2018-09-27T05:48:31.258Z,62.66
2018-09-27T05:51:02.321Z,60.13
2018-09-27T05:53:33.090Z,58.26
2018-09-27T05:56:03.674Z,57.04
2018-09-27T05:58:34.186Z,53.29
2018-09-27T06:01:04.909Z,52.51
2018-09-27T06:03:35.646Z,52.40
2018-09-27T06:06:06.530Z,50.05
2018-09-27T06:08:37.020Z,48.29
2018-09-27T06:11:07.460Z,47.67
2018-09-27T06:13:38.349Z,48.22
2018-09-27T06:16:09.762Z,46.38
2018-09-27T06:18:40.347Z,45.79
2018-09-27T06:21:10.901Z,45.57
2018-09-27T06:23:41.411Z,45.79
2018-09-27T06:26:33.339Z,45.91
2018-09-27T06:29:03.875Z,46.47
2018-09-27T06:31:34.315Z,44.88
2018-09-27T06:34:04.850Z,45.07
2018-09-27T06:36:35.436Z,44.53
2018-09-27T06:39:08.202Z,43.69
2018-09-27T06:41:38.903Z,43.02
2018-09-27T06:44:09.993Z,41.47
2018-09-27T06:46:41.366Z,40.58
2018-09-27T06:49:12.130Z,39.40
2018-09-27T06:51:42.566Z,38.35
2018-09-27T06:54:13.109Z,38.58
2018-09-27T06:56:43.973Z,37.21
2018-09-27T06:59:14.592Z,36.42
2018-09-27T07:01:45.379Z,35.21
2018-09-27T07:04:16.084Z,34.23
2018-09-27T07:06:47.387Z,33.31
2018-09-27T07:09:17.990Z,32.97
2018-09-27T07:11:48.792Z,33.21
2018-09-27T07:14:19.409Z,32.51
2018-09-27T07:16:49.966Z,31.61
2018-09-27T07:19:20.505Z,31.04
2018-09-27T07:21:50.903Z,30.46
2018-09-27T07:24:21.419Z,30.21
2018-09-27T07:26:52.099Z,29.44
2018-09-27T07:29:22.872Z,28.69
2018-09-27T07:31:53.486Z,28.28
2018-09-27T07:34:24.145Z,27.81
2018-09-27T07:36:54.531Z,27.05
2018-09-27T07:39:25.009Z,26.54
2018-09-27T07:41:55.560Z,26.13
2018-09-27T07:44:26.064Z,25.98
2018-09-27T07:46:56.417Z,24.39
2018-09-27T07:49:27.160Z,24.52
2018-09-27T07:51:57.579Z,23.51
2018-09-27T07:54:28.179Z,23.00
2018-09-27T07:56:58.683Z,22.82
2018-09-27T07:59:29.194Z,22.75
2018-09-27T08:01:59.571Z,21.48
2018-09-27T08:04:30.101Z,22.17
2018-09-27T08:07:00.794Z,22.07
2018-09-27T08:09:31.534Z,21.19
2018-09-27T08:12:02.153Z,20.58
2018-09-27T08:14:33.382Z,21.00
2018-09-27T08:17:03.963Z,20.97
2018-09-27T08:19:34.562Z,19.31
2018-09-27T08:22:06.461Z,19.43
2018-09-27T08:24:37.156Z,18.81
2018-09-27T08:27:08.048Z,18.85
2018-09-27T08:29:38.823Z,18.30
2018-09-27T08:32:09.749Z,18.65
2018-09-27T08:34:40.184Z,19.26
2018-09-27T08:37:11.002Z,19.02
2018-09-27T08:39:41.606Z,19.14
2018-09-27T08:42:12.710Z,18.89
2018-09-27T08:44:43.449Z,18.91
2018-09-27T08:47:14.034Z,18.35
2018-09-27T08:49:45.847Z,17.49
2018-09-27T08:52:16.288Z,16.88
2018-09-27T08:54:47.665Z,17.28
2018-09-27T08:57:18.404Z,17.98
2018-09-27T08:59:49.077Z,17.71
2018-09-27T09:02:20.221Z,18.49
2018-09-27T09:04:50.633Z,18.80
2018-09-27T09:07:22.182Z,18.20
2018-09-27T09:09:52.962Z,17.93
2018-09-27T09:12:24.031Z,17.90
2018-09-27T09:14:55.129Z,17.90
2018-09-27T09:17:26.096Z,17.11
2018-09-27T09:19:56.981Z,16.55
2018-09-27T09:22:28.239Z,16.09
2018-09-27T09:24:58.853Z,16.34
2018-09-27T09:27:29.592Z,16.15
2018-09-27T09:30:00.068Z,16.35
2018-09-27T09:32:30.584Z,16.52
2018-09-27T09:35:01.371Z,16.60
2018-09-27T09:37:32.278Z,15.72
2018-09-27T09:40:02.791Z,15.92
2018-09-27T09:42:33.622Z,15.59
2018-09-27T09:45:04.393Z,15.97
2018-09-27T09:47:35.054Z,16.63
2018-09-27T09:50:06.480Z,15.73
2018-09-27T09:52:37.763Z,15.88
2018-09-27T09:55:08.892Z,16.50
2018-09-27T09:57:39.624Z,16.03
2018-09-27T10:00:10.598Z,15.89
2018-09-27T10:02:41.302Z,14.95
2018-09-27T10:05:11.846Z,15.53
2018-09-27T10:07:42.727Z,16.10
2018-09-27T10:10:13.278Z,15.29
2018-09-27T10:12:43.759Z,14.98
2018-09-27T10:15:14.416Z,14.80
2018-09-27T10:17:45.093Z,14.41
2018-09-27T10:20:15.571Z,14.20
2018-09-27T10:22:46.111Z,14.94
2018-09-27T10:25:16.805Z,14.65
2018-09-27T10:27:47.412Z,15.41
2018-09-27T10:30:17.977Z,14.53
2018-09-27T10:32:48.397Z,15.32
2018-09-27T10:35:18.867Z,14.54
2018-09-27T10:37:50.022Z,13.91
2018-09-27T10:40:21.095Z,13.86
2018-09-27T10:42:51.857Z,12.98
2018-09-27T10:45:22.736Z,10.60
2018-09-27T10:47:53.211Z,10.27
2018-09-27T10:50:24.646Z,10.72
2018-09-27T10:52:55.853Z,11.57
2018-09-27T10:55:26.552Z,10.83
2018-09-27T10:57:57.486Z,10.78
2018-09-27T11:00:27.947Z,10.11
2018-09-27T11:02:58.637Z,11.02
2018-09-27T11:05:29.084Z,10.60
2018-09-27T11:07:59.748Z,9.68
2018-09-27T11:10:30.464Z,10.93
2018-09-27T11:13:01.136Z,10.46
2018-09-27T11:15:31.845Z,9.61
2018-09-27T11:18:03.604Z,9.67
2018-09-27T11:20:34.152Z,8.44
2018-09-27T11:23:05.409Z,8.04
2018-09-27T11:25:37.389Z,8.30
2018-09-27T11:28:08.573Z,9.62
2018-09-27T11:30:39.370Z,7.44
2018-09-27T11:33:10.415Z,7.85
2018-09-27T11:35:40.883Z,8.37
2018-09-27T11:38:11.591Z,8.53
2018-09-27T11:40:42.096Z,8.43
2018-09-27T11:43:12.847Z,8.66
2018-09-27T11:45:43.541Z,8.38
2018-09-27T11:48:14.079Z,7.61
2018-09-27T11:50:44.812Z,8.47
2018-09-27T11:53:16.265Z,8.77
2018-09-27T11:55:47.676Z,7.22
2018-09-27T11:58:18.384Z,7.30
2018-09-27T12:00:49.654Z,6.07
2018-09-27T12:03:20.372Z,5.62
2018-09-27T12:05:52.151Z,5.82
2018-09-27T12:08:23.201Z,5.42
2018-09-27T12:10:55.344Z,5.27
2018-09-27T12:13:26.748Z,5.16
2018-09-27T12:15:58.141Z,4.88
2018-09-27T12:18:29.248Z,5.78
2018-09-27T12:21:00.098Z,6.46
2018-09-27T12:23:32.680Z,6.83
2018-09-27T12:26:04.679Z,5.28
2018-09-27T12:28:42.303Z,4.08
2018-09-27T12:31:16.918Z,5.24
2018-09-27T12:34:02.655Z,5.28
2018-09-27T12:36:35.796Z,5.01
2018-09-27T12:39:11.025Z,6.37
2018-09-27T12:41:44.179Z,6.19
2018-09-27T12:44:15.057Z,5.34
2018-09-27T12:46:46.539Z,5.82
2018-09-27T12:49:17.282Z,5.03
2018-09-27T12:51:49.920Z,4.50
2018-09-27T12:54:20.703Z,4.24
2018-09-27T12:56:51.618Z,4.77
2018-09-27T12:59:23.437Z,4.02
2018-09-27T13:01:55.575Z,4.15
2018-09-27T13:04:29.004Z,4.64
2018-09-27T13:07:01.305Z,4.56
2018-09-27T13:09:33.467Z,4.92
2018-09-27T13:12:05.846Z,4.88
2018-09-27T13:14:36.605Z,3.98
2018-09-27T13:17:07.311Z,4.66
2018-09-27T13:19:38.497Z,4.24
2018-09-27T13:22:09.365Z,4.61
2018-09-27T13:24:39.952Z,5.80
2018-09-27T13:27:10.631Z,5.23
2018-09-27T13:29:41.617Z,5.68
2018-09-27T13:32:15.576Z,5.38
2018-09-27T13:34:47.230Z,5.22
2018-09-27T13:37:19.590Z,5.91
2018-09-27T13:39:50.394Z,4.88
2018-09-27T13:42:21.332Z,5.45
2018-09-27T13:44:52.801Z,4.89
2018-09-27T13:47:24.352Z,5.28
2018-09-27T13:49:58.827Z,5.12
2018-09-27T13:52:29.944Z,6.10
2018-09-27T13:55:02.580Z,5.49
2018-09-27T13:57:34.090Z,5.87
2018-09-27T14:00:04.779Z,6.47
2018-09-27T14:02:35.837Z,5.60
2018-09-27T14:05:07.157Z,5.76
2018-09-27T14:07:37.902Z,5.77
2018-09-27T14:10:08.804Z,5.63
2018-09-27T14:12:39.659Z,6.28
2018-09-27T14:15:10.852Z,6.79
2018-09-27T14:17:41.626Z,6.65
2018-09-27T14:20:12.276Z,6.07
2018-09-27T14:22:44.128Z,6.47
2018-09-27T14:25:16.399Z,6.88
2018-09-27T14:27:48.231Z,7.15
2018-09-27T14:30:21.383Z,7.14
2018-09-27T14:32:55.334Z,7.39
2018-09-27T14:35:28.056Z,7.56
2018-09-27T14:38:00.403Z,8.30
2018-09-27T14:40:32.026Z,7.16
2018-09-27T14:43:04.425Z,7.51
2018-09-27T14:45:36.166Z,7.50
2018-09-27T14:48:09.095Z,7.77
2018-09-27T14:50:41.872Z,7.94
2018-09-27T14:53:13.633Z,7.90
2018-09-27T14:55:50.061Z,6.97
2018-09-27T14:58:21.410Z,8.00
2018-09-27T15:00:59.473Z,7.79
2018-09-27T15:03:33.018Z,7.86
2018-09-27T15:06:04.994Z,8.18
2018-09-27T15:08:35.737Z,8.05
2018-09-27T15:11:06.549Z,7.93
2018-09-27T15:13:37.242Z,8.51
2018-09-27T15:16:07.784Z,8.05
2018-09-27T15:18:39.151Z,7.57
2018-09-27T15:21:09.825Z,8.01
2018-09-27T15:23:40.439Z,8.06
2018-09-27T15:26:11.069Z,8.60
2018-09-27T15:28:41.711Z,8.43
2018-09-27T15:31:12.803Z,8.24
2018-09-27T15:33:43.771Z,8.62
2018-09-27T15:36:15.015Z,8.48
2018-09-27T15:38:46.314Z,8.82
2018-09-27T15:41:16.883Z,8.90
2018-09-27T15:43:47.763Z,8.91
2018-09-27T15:46:18.609Z,9.20
2018-09-27T15:48:49.336Z,8.31
2018-09-27T15:51:20.150Z,7.44
2018-09-27T15:53:50.936Z,8.17
2018-09-27T15:56:21.458Z,8.91
2018-09-27T15:58:52.952Z,8.40
2018-09-27T16:01:23.513Z,8.35
2018-09-27T16:03:54.078Z,8.57
2018-09-27T16:06:24.747Z,9.27
2018-09-27T16:08:55.462Z,9.41
2018-09-27T16:11:25.923Z,9.88
2018-09-27T16:13:56.619Z,10.09
2018-09-27T16:16:27.105Z,10.77
2018-09-27T16:18:57.799Z,10.65
2018-09-27T16:21:28.453Z,11.21
2018-09-27T16:23:59.156Z,11.67
2018-09-27T16:26:29.866Z,11.49
2018-09-27T16:29:00.324Z,12.36
2018-09-27T16:31:31.092Z,11.94
2018-09-27T16:34:01.491Z,11.61
2018-09-27T16:36:33.036Z,11.75
2018-09-27T16:39:05.692Z,11.51
2018-09-27T16:41:36.532Z,11.43
2018-09-27T16:44:07.610Z,11.35
2018-09-27T16:46:38.622Z,11.06
2018-09-27T16:49:09.510Z,11.28
2018-09-27T16:51:40.720Z,11.99
2018-09-27T16:54:11.508Z,12.22
2018-09-27T16:56:42.201Z,12.87
2018-09-27T16:59:13.803Z,13.12
2018-09-27T17:01:44.875Z,13.04
2018-09-27T17:04:16.834Z,13.53
2018-09-27T17:06:47.543Z,14.27
2018-09-27T17:09:18.702Z,14.38
2018-09-27T17:11:49.553Z,14.75
2018-09-27T17:14:20.631Z,15.08
2018-09-27T17:16:51.519Z,15.61
2018-09-27T17:19:23.266Z,16.05
2018-09-27T17:21:54.919Z,16.30
2018-09-27T17:24:25.892Z,17.72
2018-09-27T17:26:57.126Z,18.95
2018-09-27T17:29:28.562Z,19.76
2018-09-27T17:31:59.408Z,20.37
2018-09-27T17:34:30.241Z,20.97
2018-09-27T17:37:01.510Z,21.89
2018-09-27T17:39:32.504Z,23.22
2018-09-27T17:42:03.832Z,23.37
2018-09-27T17:44:34.486Z,23.39
2018-09-27T17:47:06.062Z,23.20
2018-09-27T17:49:38.798Z,23.64
2018-09-27T17:52:11.281Z,25.14
2018-09-27T17:54:42.925Z,25.92
2018-09-27T17:57:14.732Z,26.81
2018-09-27T17:59:46.607Z,27.69
2018-09-27T18:02:18.332Z,28.88
2018-09-27T18:04:49.318Z,28.97
2018-09-27T18:07:20.411Z,29.90
2018-09-27T18:09:51.505Z,30.54
2018-09-27T18:12:22.358Z,31.12
2018-09-27T18:14:53.465Z,32.41
2018-09-27T18:17:25.479Z,32.49
2018-09-27T18:19:58.010Z,34.20
2018-09-27T18:22:30.911Z,33.78
2018-09-27T18:25:01.826Z,34.45
2018-09-27T18:27:34.748Z,35.16
2018-09-27T18:30:05.655Z,35.23
2018-09-27T18:32:36.656Z,35.68
2018-09-27T18:35:07.436Z,36.22
2018-09-27T18:37:40.653Z,36.42
2018-09-27T18:40:12.132Z,37.60
2018-09-27T18:42:43.059Z,37.34
2018-09-27T18:45:16.004Z,37.43
2018-09-27T18:47:47.553Z,37.93
2018-09-27T18:50:19.063Z,37.20
2018-09-27T18:52:50.525Z,37.86
2018-09-27T18:55:21.550Z,38.39
2018-09-27T18:57:52.380Z,38.62
2018-09-27T19:00:23.768Z,38.47
2018-09-27T19:02:54.618Z,38.60
2018-09-27T19:05:25.778Z,40.51
2018-09-27T19:07:56.539Z,39.66
2018-09-27T19:10:27.309Z,41.10
2018-09-27T19:12:57.939Z,41.37
2018-09-27T19:15:28.804Z,40.39
2018-09-27T19:17:59.589Z,40.34
2018-09-27T19:20:30.236Z,41.06
2018-09-27T19:23:01.351Z,39.81
2018-09-27T19:25:33.549Z,39.03
2018-09-27T19:28:04.615Z,37.45
2018-09-27T19:30:36.717Z,38.12
2018-09-27T19:33:07.661Z,39.08
2018-09-27T19:35:39.107Z,38.38
2018-09-27T19:38:10.172Z,39.39
2018-09-27T19:40:41.099Z,40.62
2018-09-27T19:43:12.221Z,41.15
2018-09-27T19:45:43.428Z,41.63
2018-09-27T19:48:14.847Z,42.03
2018-09-27T19:50:46.408Z,43.16
2018-09-27T19:53:17.636Z,41.59
2018-09-27T19:55:49.718Z,44.21
2018-09-27T19:58:20.689Z,44.82
2018-09-27T20:00:51.663Z,45.30
2018-09-27T20:03:22.558Z,44.54
2018-09-27T20:05:53.587Z,44.43
2018-09-27T20:08:26.382Z,45.25
2018-09-27T20:11:00.865Z,44.10
2018-09-27T20:13:37.708Z,44.63
2018-09-27T20:16:08.966Z,44.30
2018-09-27T20:18:40.924Z,44.00
2018-09-27T20:21:11.701Z,45.52
2018-09-27T20:23:42.360Z,46.22
2018-09-27T20:26:14.848Z,45.22
2018-09-27T20:28:45.728Z,44.04
2018-09-27T20:31:17.657Z,45.86
2018-09-27T20:33:49.378Z,45.60
2018-09-27T20:36:20.152Z,47.09
2018-09-27T20:38:50.852Z,45.47
2018-09-27T20:41:21.546Z,45.38
2018-09-27T20:43:52.371Z,45.52
2018-09-27T20:46:23.232Z,44.18
2018-09-27T20:48:53.891Z,44.80
2018-09-27T20:51:24.712Z,44.39
2018-09-27T20:53:56.826Z,45.53
2018-09-27T20:56:27.550Z,45.18
2018-09-27T20:58:58.139Z,45.93
2018-09-27T21:01:28.922Z,44.74
2018-09-27T21:03:59.524Z,46.25
2018-09-27T21:06:30.042Z,46.43
2018-09-27T21:09:00.608Z,45.38
2018-09-27T21:11:31.232Z,46.77
2018-09-27T21:14:01.940Z,46.46
2018-09-27T21:16:32.554Z,46.92
2018-09-27T21:19:03.454Z,46.19
2018-09-27T21:21:34.059Z,46.31
2018-09-27T21:24:04.950Z,43.77
2018-09-27T21:26:35.775Z,43.78
2018-09-27T21:29:06.455Z,43.89
2018-09-27T21:31:38.160Z,44.36
2018-09-27T21:34:08.949Z,45.74
2018-09-27T21:36:41.389Z,45.65
2018-09-27T21:39:11.978Z,45.55
2018-09-27T21:41:42.558Z,45.99
2018-09-27T21:44:13.087Z,46.38
2018-09-27T21:46:43.694Z,46.70
2018-09-27T21:49:14.401Z,46.25
2018-09-27T21:51:45.071Z,46.58
2018-09-27T21:54:15.569Z,46.25
2018-09-27T21:56:46.219Z,45.21
2018-09-27T21:59:16.955Z,45.65
2018-09-27T22:01:48.738Z,45.07
2018-09-27T22:04:19.181Z,44.99
2018-09-27T22:06:50.773Z,45.02
2018-09-27T22:09:21.455Z,45.83
2018-09-27T22:11:52.048Z,47.91
2018-09-27T22:14:22.504Z,49.38
2018-09-27T22:16:53.012Z,51.76
2018-09-27T22:19:23.611Z,50.91
2018-09-27T22:21:54.055Z,50.94
2018-09-27T22:24:25.098Z,51.37
2018-09-27T22:26:55.640Z,53.33
2018-09-27T22:29:26.185Z,53.29
2018-09-27T22:31:56.723Z,50.68
2018-09-27T22:34:27.442Z,50.78
2018-09-27T22:36:57.977Z,52.77
2018-09-27T22:39:28.693Z,53.05
2018-09-27T22:41:59.291Z,53.07
2018-09-27T22:44:29.928Z,52.78
2018-09-27T22:47:00.482Z,53.10
2018-09-27T22:49:31.146Z,53.25
2018-09-27T22:52:01.730Z,52.90
2018-09-27T22:54:32.736Z,53.33
2018-09-27T22:57:03.291Z,53.24
2018-09-27T22:59:35.963Z,54.27
2018-09-27T23:02:06.505Z,55.02
2018-09-27T23:04:37.093Z,54.62
2018-09-27T23:07:07.784Z,54.68
2018-09-27T23:09:38.319Z,55.21
2018-09-27T23:12:08.904Z,54.96
2018-09-27T23:14:39.687Z,54.91
2018-09-27T23:17:10.406Z,55.08
2018-09-27T23:19:40.850Z,56.10
2018-09-27T23:22:11.537Z,56.57
2018-09-27T23:24:42.136Z,57.97
2018-09-27T23:27:12.444Z,57.90
2018-09-27T23:29:42.951Z,55.95
2018-09-27T23:32:13.523Z,53.71
2018-09-27T23:34:44.109Z,52.94
2018-09-27T23:37:14.611Z,51.78
2018-09-27T23:39:45.068Z,51.07
2018-09-27T23:42:15.576Z,53.72
2018-09-27T23:44:46.200Z,52.16
2018-09-27T23:47:16.622Z,54.77
2018-09-27T23:49:47.119Z,57.75
2018-09-27T23:52:17.667Z,55.38
2018-09-27T23:54:48.187Z,54.95
2018-09-27T23:57:18.664Z,58.48
2018-09-27T23:59:49.313Z,59.59
